createdAt,value
2022-10-28T00:00:51.185Z,101357.59
2022-10-28T00:03:33.628Z,101371.94
2022-10-28T00:06:14.976Z,101372.94
2022-10-28T00:08:55.300Z,101389.81
2022-10-28T00:11:36.698Z,101408.69
2022-10-28T00:14:18.105Z,101412.34
2022-10-28T00:17:01.557Z,101421.53
2022-10-28T00:19:47.019Z,101440.59
2022-10-28T00:22:27.103Z,101442.44
2022-10-28T00:25:24.811Z,101445.78
2022-10-28T00:28:02.962Z,101455.47
2022-10-28T00:30:45.086Z,101466.84
2022-10-28T00:33:26.104Z,101478.41
2022-10-28T00:36:09.709Z,101483.75
2022-10-28T00:38:49.068Z,101493.28
2022-10-28T00:41:33.180Z,101494.66
2022-10-28T00:44:30.921Z,101500.13
2022-10-28T00:47:11.569Z,101505.22
2022-10-28T00:49:52.233Z,101499.59
2022-10-28T00:52:45.722Z,101494.19
2022-10-28T00:55:28.743Z,101489.72
2022-10-28T00:58:11.908Z,101481.06
2022-10-28T01:00:52.827Z,101475.09
2022-10-28T01:03:34.196Z,101465.22
2022-10-28T01:06:12.112Z,101460.38
2022-10-28T01:08:56.073Z,101458.53
2022-10-28T01:11:44.695Z,101446.66
2022-10-28T01:14:28.923Z,101443.63
2022-10-28T01:17:22.590Z,101445.69
2022-10-28T01:20:19.929Z,101418.22
2022-10-28T01:22:59.740Z,101400.16
2022-10-28T01:26:06.485Z,101383.25
2022-10-28T01:28:54.995Z,101374.91
2022-10-28T01:31:38.536Z,101365.38
2022-10-28T01:34:19.755Z,101350.28
2022-10-28T01:37:02.945Z,101350.47
2022-10-28T01:39:45.269Z,101340.03
2022-10-28T01:42:45.465Z,101337.53
2022-10-28T01:45:27.741Z,101326.81
2022-10-28T01:48:09.687Z,101328.84
2022-10-28T01:50:52.228Z,101327.81
2022-10-28T01:53:33.022Z,101303.22
2022-10-28T01:56:15.074Z,101287.97
2022-10-28T01:58:55.219Z,101284.78
2022-10-28T02:01:37.007Z,101273.69
2022-10-28T02:04:18.940Z,101271.00
2022-10-28T02:06:59.851Z,101260.41
2022-10-28T02:09:47.795Z,101247.66
2022-10-28T02:12:29.083Z,101233.25
2022-10-28T02:15:15.948Z,101215.50
2022-10-28T02:17:58.042Z,101208.47
2022-10-28T02:20:41.928Z,101200.78
2022-10-28T02:23:27.723Z,101186.59
2022-10-28T02:26:11.324Z,101174.06
2022-10-28T02:29:04.433Z,101178.28
2022-10-28T02:31:46.064Z,101171.97
2022-10-28T02:34:26.845Z,101172.28
2022-10-28T02:37:07.784Z,101177.50
2022-10-28T02:39:50.402Z,101177.03
2022-10-28T02:42:30.558Z,101176.88
2022-10-28T02:45:20.317Z,101176.19
2022-10-28T02:48:02.659Z,101186.88
2022-10-28T02:50:44.825Z,101179.41
2022-10-28T02:53:29.633Z,101182.22
2022-10-28T02:56:10.123Z,101184.53
2022-10-28T02:58:51.504Z,101174.97
2022-10-28T03:01:44.714Z,101163.06
2022-10-28T03:04:27.100Z,101159.03
2022-10-28T03:07:07.524Z,101151.00
2022-10-28T03:09:48.830Z,101152.31
2022-10-28T03:12:28.853Z,101146.13
2022-10-28T03:15:10.745Z,101149.47
2022-10-28T03:17:51.831Z,101145.78
2022-10-28T03:20:32.883Z,101141.41
2022-10-28T03:23:12.661Z,101144.94
2022-10-28T03:25:52.475Z,101144.09
2022-10-28T03:28:30.367Z,101132.19
2022-10-28T03:31:10.530Z,101142.25
2022-10-28T03:34:11.103Z,101135.88
2022-10-28T03:36:49.010Z,101133.19
2022-10-28T03:39:30.621Z,101130.88
2022-10-28T03:42:10.609Z,101118.50
2022-10-28T03:44:52.157Z,101121.06
2022-10-28T03:47:33.393Z,101123.28
2022-10-28T03:50:14.737Z,101125.81
2022-10-28T03:52:54.632Z,101129.31
2022-10-28T03:55:36.067Z,101129.19
2022-10-28T03:58:57.764Z,101127.34
2022-10-28T04:01:35.931Z,101124.72
2022-10-28T04:04:16.382Z,101122.06
2022-10-28T04:06:57.384Z,101116.91
2022-10-28T04:09:37.181Z,101129.13
2022-10-28T04:12:19.195Z,101123.44
2022-10-28T04:15:02.378Z,101118.44
2022-10-28T04:17:43.021Z,101130.00
2022-10-28T04:20:22.925Z,101127.16
2022-10-28T04:23:02.594Z,101129.19
2022-10-28T04:25:44.030Z,101133.50
2022-10-28T04:28:24.952Z,101143.88
2022-10-28T04:31:07.306Z,101140.22
2022-10-28T04:33:50.257Z,101145.03
2022-10-28T04:36:31.255Z,101152.22
2022-10-28T04:39:11.138Z,101150.88
2022-10-28T04:41:52.484Z,101149.84
2022-10-28T04:44:30.333Z,101165.22
2022-10-28T04:47:10.752Z,101177.06
2022-10-28T04:49:51.935Z,101185.75
2022-10-28T04:52:35.326Z,101177.22
2022-10-28T04:55:18.394Z,101190.91
2022-10-28T04:58:11.322Z,101185.53
2022-10-28T05:01:07.481Z,101192.38
2022-10-28T05:03:49.902Z,101197.06
2022-10-28T05:06:28.352Z,101199.22
2022-10-28T05:09:50.709Z,101197.56
2022-10-28T05:12:30.429Z,101197.03
2022-10-28T05:15:11.201Z,101203.53
2022-10-28T05:17:52.036Z,101210.19
2022-10-28T05:20:33.116Z,101213.19
2022-10-28T05:23:12.892Z,101222.53
2022-10-28T05:25:52.790Z,101222.84
2022-10-28T05:28:34.194Z,101219.81
2022-10-28T05:31:15.713Z,101232.50
2022-10-28T05:33:57.392Z,101223.13
2022-10-28T05:36:38.513Z,101227.13
2022-10-28T05:39:19.758Z,101225.59
2022-10-28T05:42:01.275Z,101240.09
2022-10-28T05:44:44.594Z,101240.72
2022-10-28T05:47:25.643Z,101250.91
2022-10-28T05:50:09.542Z,101244.88
2022-10-28T05:52:50.413Z,101246.31
2022-10-28T05:55:32.073Z,101255.16
2022-10-28T05:58:14.015Z,101250.31
2022-10-28T06:00:54.192Z,101254.13
2022-10-28T06:03:35.284Z,101252.63
2022-10-28T06:06:15.418Z,101259.31
2022-10-28T06:08:58.123Z,101254.28
2022-10-28T06:11:38.793Z,101259.16
2022-10-28T06:14:22.033Z,101269.00
2022-10-28T06:17:00.785Z,101271.34
2022-10-28T06:19:40.901Z,101273.41
2022-10-28T06:22:21.565Z,101276.91
2022-10-28T06:25:02.287Z,101277.28
2022-10-28T06:27:43.590Z,101279.47
2022-10-28T06:30:27.133Z,101288.63
2022-10-28T06:33:10.001Z,101287.03
2022-10-28T06:35:57.379Z,101292.69
2022-10-28T06:38:37.140Z,101305.88
2022-10-28T06:41:17.986Z,101299.72
2022-10-28T06:43:58.388Z,101304.75
2022-10-28T06:46:39.731Z,101301.94
2022-10-28T06:49:17.566Z,101308.94
2022-10-28T06:51:55.839Z,101304.19
2022-10-28T06:54:37.924Z,101314.28
2022-10-28T06:57:17.128Z,101306.16
2022-10-28T06:59:58.130Z,101308.69
2022-10-28T07:02:42.746Z,101300.97
2022-10-28T07:05:27.518Z,101310.09
2022-10-28T07:08:10.835Z,101314.13
2022-10-28T07:10:56.248Z,101301.75
2022-10-28T07:13:39.091Z,101298.41
2022-10-28T07:16:18.073Z,101285.88
2022-10-28T07:19:10.015Z,101282.53
2022-10-28T07:21:49.804Z,101268.63
2022-10-28T07:24:29.627Z,101267.28
2022-10-28T07:27:11.434Z,101246.38
2022-10-28T07:30:12.690Z,101236.69
2022-10-28T07:32:53.196Z,101237.53
2022-10-28T07:35:34.476Z,101243.88
2022-10-28T07:38:12.479Z,101233.47
2022-10-28T07:40:52.558Z,101235.00
2022-10-28T07:43:35.852Z,101227.44
2022-10-28T07:46:17.206Z,101233.63
2022-10-28T07:48:58.319Z,101230.22
2022-10-28T07:51:38.087Z,101227.22
2022-10-28T07:54:20.640Z,101217.16
2022-10-28T07:57:00.972Z,101211.34
2022-10-28T07:59:42.305Z,101195.63
2022-10-28T08:02:23.115Z,101172.81
2022-10-28T08:05:07.020Z,101158.38
2022-10-28T08:07:47.855Z,101149.88
2022-10-28T08:10:28.624Z,101142.38
2022-10-28T08:13:10.880Z,101129.13
2022-10-28T08:15:53.513Z,101127.06
2022-10-28T08:18:33.755Z,101123.59
2022-10-28T08:21:13.865Z,101118.47
2022-10-28T08:23:55.616Z,101125.66
2022-10-28T08:26:38.469Z,101130.75
2022-10-28T08:29:19.597Z,101127.25
2022-10-28T08:32:03.782Z,101123.25
2022-10-28T08:34:45.975Z,101122.88
2022-10-28T08:37:27.093Z,101120.75
2022-10-28T08:40:13.097Z,101118.63
2022-10-28T08:42:55.469Z,101116.59
2022-10-28T08:45:38.289Z,101106.78
2022-10-28T08:48:20.488Z,101095.19
2022-10-28T08:51:17.557Z,101108.53
2022-10-28T08:54:12.910Z,101115.84
2022-10-28T08:56:54.928Z,101112.78
2022-10-28T08:59:59.969Z,101111.13
2022-10-28T09:02:46.190Z,101107.16
2022-10-28T09:05:27.945Z,101098.69
2022-10-28T09:08:09.941Z,101107.22
2022-10-28T09:11:09.580Z,101103.50
2022-10-28T09:13:54.383Z,101097.81
2022-10-28T09:16:37.421Z,101111.13
2022-10-28T09:19:17.426Z,101129.94
2022-10-28T09:22:00.695Z,101136.69
2022-10-28T09:24:42.861Z,101148.78
2022-10-28T09:27:32.531Z,101155.03
2022-10-28T09:30:29.463Z,101170.25
2022-10-28T09:33:22.189Z,101164.06
2022-10-28T09:36:00.691Z,101166.84
2022-10-28T09:38:40.656Z,101171.31
2022-10-28T09:41:21.921Z,101168.28
2022-10-28T09:44:04.612Z,101184.34
2022-10-28T09:46:44.969Z,101182.91
2022-10-28T09:49:27.340Z,101184.47
2022-10-28T09:52:15.312Z,101193.19
2022-10-28T09:54:59.167Z,101190.75
2022-10-28T09:57:40.063Z,101189.75
2022-10-28T10:00:33.775Z,101189.53
2022-10-28T10:03:14.971Z,101202.03
2022-10-28T10:05:57.007Z,101195.97
2022-10-28T10:08:37.596Z,101201.75
2022-10-28T10:11:18.878Z,101196.47
2022-10-28T10:13:56.860Z,101207.91
2022-10-28T10:16:40.802Z,101205.31
2022-10-28T10:19:23.618Z,101207.63
2022-10-28T10:22:30.253Z,101210.19
2022-10-28T10:25:24.245Z,101208.16
2022-10-28T10:28:04.989Z,101218.91
2022-10-28T10:30:47.753Z,101214.03
2022-10-28T10:33:31.887Z,101221.28
2022-10-28T10:36:15.902Z,101219.75
2022-10-28T10:38:56.910Z,101234.38
2022-10-28T10:41:38.147Z,101238.44
2022-10-28T10:44:30.771Z,101236.88
2022-10-28T10:47:19.643Z,101238.16
2022-10-28T10:50:16.859Z,101236.09
2022-10-28T10:52:58.357Z,101233.88
2022-10-28T10:55:40.622Z,101235.53
2022-10-28T10:58:22.402Z,101237.19
2022-10-28T11:01:05.179Z,101230.25
2022-10-28T11:03:48.582Z,101232.75
2022-10-28T11:06:30.260Z,101230.06
2022-10-28T11:09:19.197Z,101215.81
2022-10-28T11:11:59.766Z,101222.47
2022-10-28T11:14:40.925Z,101222.72
2022-10-28T11:17:24.622Z,101216.22
2022-10-28T11:20:24.810Z,101217.25
2022-10-28T11:23:09.953Z,101200.19
2022-10-28T11:25:49.167Z,101214.66
2022-10-28T11:28:42.509Z,101202.13
2022-10-28T11:31:28.431Z,101213.69
2022-10-28T11:34:14.639Z,101206.00
2022-10-28T11:36:57.254Z,101207.41
2022-10-28T11:39:40.750Z,101210.88
2022-10-28T11:42:23.446Z,101211.28
2022-10-28T11:45:07.194Z,101208.88
2022-10-28T11:47:51.500Z,101207.56
2022-10-28T11:50:36.529Z,101222.75
2022-10-28T11:53:33.239Z,101226.69
2022-10-28T11:56:17.099Z,101223.81
2022-10-28T11:59:02.331Z,101218.44
2022-10-28T12:01:45.744Z,101216.78
2022-10-28T12:04:28.655Z,101209.91
2022-10-28T12:07:29.067Z,101211.41
2022-10-28T12:10:29.719Z,101216.47
2022-10-28T12:13:10.904Z,101225.03
2022-10-28T12:15:53.515Z,101215.00
2022-10-28T12:18:33.592Z,101222.78
2022-10-28T12:21:16.157Z,101217.59
2022-10-28T12:23:54.390Z,101227.28
2022-10-28T12:26:36.006Z,101225.59
2022-10-28T12:29:17.368Z,101230.16
2022-10-28T12:31:58.320Z,101228.59
2022-10-28T12:34:39.715Z,101225.53
2022-10-28T12:37:19.288Z,101227.91
2022-10-28T12:40:00.571Z,101227.19
2022-10-28T12:42:42.333Z,101228.94
2022-10-28T12:45:22.817Z,101224.13
2022-10-28T12:48:05.695Z,101218.28
2022-10-28T12:50:47.540Z,101212.84
2022-10-28T12:53:31.862Z,101212.34
2022-10-28T12:56:14.803Z,101202.41
2022-10-28T12:58:59.664Z,101207.50
2022-10-28T13:01:38.935Z,101212.94
2022-10-28T13:04:18.938Z,101206.41
2022-10-28T13:07:02.939Z,101210.94
2022-10-28T13:09:45.465Z,101204.94
2022-10-28T13:12:49.041Z,101201.16
2022-10-28T13:15:41.827Z,101206.59
2022-10-28T13:18:43.510Z,101205.19
2022-10-28T13:21:25.831Z,101213.38
2022-10-28T13:24:07.477Z,101212.44
2022-10-28T13:26:50.419Z,101212.41
2022-10-28T13:29:33.586Z,101212.09
2022-10-28T13:32:25.823Z,101214.00
2022-10-28T13:35:26.430Z,101212.31
2022-10-28T13:38:10.612Z,101205.19
2022-10-28T13:41:08.215Z,101194.00
2022-10-28T13:43:59.533Z,101201.03
2022-10-28T13:46:56.003Z,101199.81
2022-10-28T13:49:36.657Z,101190.16
2022-10-28T13:52:21.095Z,101194.19
2022-10-28T13:55:04.448Z,101195.34
2022-10-28T13:57:44.464Z,101178.16
2022-10-28T14:00:37.088Z,101181.47
2022-10-28T14:03:20.489Z,101180.72
2022-10-28T14:06:03.328Z,101178.72
2022-10-28T14:08:44.906Z,101183.69
2022-10-28T14:11:25.664Z,101175.03
2022-10-28T14:14:13.824Z,101178.91
2022-10-28T14:16:54.810Z,101171.38
2022-10-28T14:19:39.917Z,101168.16
2022-10-28T14:22:29.059Z,101159.53
2022-10-28T14:25:38.979Z,101154.69
2022-10-28T14:28:39.662Z,101151.81
2022-10-28T14:31:29.502Z,101152.72
2022-10-28T14:34:27.247Z,101146.97
2022-10-28T14:37:12.207Z,101146.84
2022-10-28T14:39:56.531Z,101150.06
2022-10-28T14:42:56.145Z,101156.47
2022-10-28T14:45:37.631Z,101149.69
2022-10-28T14:48:23.370Z,101152.41
2022-10-28T14:51:06.064Z,101144.41
2022-10-28T14:53:47.010Z,101147.72
2022-10-28T14:56:27.108Z,101139.06
2022-10-28T14:59:16.265Z,101135.50
2022-10-28T15:02:00.354Z,101133.25
2022-10-28T15:05:01.631Z,101131.19
2022-10-28T15:07:42.776Z,101127.50
2022-10-28T15:10:23.610Z,101124.63
2022-10-28T15:13:04.545Z,101116.94
2022-10-28T15:15:51.923Z,101105.16
2022-10-28T15:18:33.231Z,101096.41
2022-10-28T15:21:16.918Z,101098.28
2022-10-28T15:24:01.673Z,101092.66
2022-10-28T15:26:42.266Z,101088.97
2022-10-28T15:29:22.074Z,101084.00
2022-10-28T15:32:05.384Z,101085.88
2022-10-28T15:34:46.581Z,101074.88
2022-10-28T15:37:29.801Z,101070.13
2022-10-28T15:40:19.537Z,101078.59
2022-10-28T15:43:02.630Z,101064.03
2022-10-28T15:45:43.314Z,101059.91
2022-10-28T15:48:24.045Z,101057.78
2022-10-28T15:51:14.418Z,101053.19
2022-10-28T15:53:57.665Z,101059.00
2022-10-28T15:56:39.416Z,101059.97
2022-10-28T15:59:21.171Z,101053.75
2022-10-28T16:02:01.623Z,101066.09
2022-10-28T16:04:45.456Z,101070.66
2022-10-28T16:07:25.815Z,101077.75
2022-10-28T16:10:14.320Z,101085.47
2022-10-28T16:12:57.109Z,101091.06
2022-10-28T16:15:38.054Z,101095.84
2022-10-28T16:18:17.846Z,101093.56
2022-10-28T16:21:19.020Z,101105.34
2022-10-28T16:23:58.954Z,101106.53
2022-10-28T16:26:41.775Z,101108.19
2022-10-28T16:29:22.640Z,101120.81
2022-10-28T16:32:00.577Z,101119.91
2022-10-28T16:34:40.853Z,101121.56
2022-10-28T16:37:34.013Z,101125.88
2022-10-28T16:40:37.561Z,101125.00
2022-10-28T16:44:00.182Z,101124.94
2022-10-28T16:46:58.474Z,101121.56
2022-10-28T16:49:41.703Z,101135.44
2022-10-28T16:52:23.978Z,101133.31
2022-10-28T16:55:04.851Z,101135.97
2022-10-28T16:57:48.688Z,101134.28
2022-10-28T17:00:29.116Z,101144.41
2022-10-28T17:03:14.228Z,101133.22
2022-10-28T17:05:54.984Z,101134.19
2022-10-28T17:09:02.377Z,101139.78
2022-10-28T17:11:43.933Z,101143.31
2022-10-28T17:14:25.369Z,101146.00
2022-10-28T17:17:06.846Z,101148.22
2022-10-28T17:19:50.284Z,101148.69
2022-10-28T17:22:31.509Z,101162.19
2022-10-28T17:25:26.372Z,101164.84
2022-10-28T17:28:07.366Z,101162.97
2022-10-28T17:30:47.214Z,101172.28
2022-10-28T17:33:28.630Z,101172.63
2022-10-28T17:36:29.174Z,101170.91
2022-10-28T17:39:13.653Z,101174.81
2022-10-28T17:41:57.266Z,101173.78
2022-10-28T17:44:36.642Z,101174.16
2022-10-28T17:47:20.150Z,101169.03
2022-10-28T17:50:01.163Z,101169.03
2022-10-28T17:52:42.456Z,101175.53
2022-10-28T17:55:23.934Z,101178.78
2022-10-28T17:58:05.386Z,101182.06
2022-10-28T18:01:06.402Z,101187.00
2022-10-28T18:03:59.135Z,101195.69
2022-10-28T18:06:40.508Z,101194.03
2022-10-28T18:09:23.848Z,101203.56
2022-10-28T18:12:28.147Z,101207.50
2022-10-28T18:15:48.997Z,101208.50
2022-10-28T18:18:29.080Z,101213.41
2022-10-28T18:21:10.866Z,101219.09
2022-10-28T18:24:34.271Z,101223.81
2022-10-28T18:27:15.805Z,101213.50
2022-10-28T18:29:56.855Z,101222.22
2022-10-28T18:32:38.818Z,101227.84
2022-10-28T18:35:19.688Z,101213.75
2022-10-28T18:38:03.083Z,101215.06
2022-10-28T18:40:48.193Z,101224.44
2022-10-28T18:43:29.746Z,101231.13
2022-10-28T18:46:15.193Z,101225.34
2022-10-28T18:49:13.631Z,101234.69
2022-10-28T18:51:56.134Z,101244.19
2022-10-28T18:54:36.972Z,101249.31
2022-10-28T18:57:19.224Z,101255.06
2022-10-28T19:00:18.848Z,101259.50
2022-10-28T19:03:02.532Z,101249.06
2022-10-28T19:05:46.100Z,101260.00
2022-10-28T19:08:24.429Z,101258.72
2022-10-28T19:11:07.882Z,101259.94
2022-10-28T19:13:49.232Z,101263.00
2022-10-28T19:16:31.021Z,101262.19
2022-10-28T19:19:09.965Z,101264.03
2022-10-28T19:21:51.127Z,101271.66
2022-10-28T19:24:36.350Z,101277.03
2022-10-28T19:27:19.719Z,101277.75
2022-10-28T19:30:06.619Z,101288.53
2022-10-28T19:32:50.089Z,101293.53
2022-10-28T19:35:29.588Z,101293.53
2022-10-28T19:38:09.680Z,101294.09
2022-10-28T19:40:49.124Z,101298.00
2022-10-28T19:43:41.241Z,101308.13
2022-10-28T19:46:27.170Z,101311.75
2022-10-28T19:49:07.231Z,101310.06
2022-10-28T19:51:53.595Z,101302.94
2022-10-28T19:54:34.702Z,101301.25
2022-10-28T19:57:14.662Z,101309.25
2022-10-28T20:00:06.720Z,101304.97
2022-10-28T20:02:51.733Z,101309.03
2022-10-28T20:05:33.569Z,101310.44
2022-10-28T20:08:17.136Z,101322.09
2022-10-28T20:11:01.299Z,101314.75
2022-10-28T20:13:40.661Z,101327.06
2022-10-28T20:16:24.580Z,101327.25
2022-10-28T20:19:14.998Z,101321.38
2022-10-28T20:21:56.081Z,101327.94
2022-10-28T20:24:35.951Z,101335.72
2022-10-28T20:27:15.783Z,101337.78
2022-10-28T20:29:59.647Z,101327.72
2022-10-28T20:32:40.416Z,101342.53
2022-10-28T20:35:41.251Z,101346.59
2022-10-28T20:38:41.662Z,101344.94
2022-10-28T20:41:23.158Z,101359.75
2022-10-28T20:44:04.695Z,101362.81
2022-10-28T20:46:50.389Z,101370.16
2022-10-28T20:49:30.233Z,101374.88
2022-10-28T20:52:12.686Z,101375.25
2022-10-28T20:54:53.034Z,101387.84
2022-10-28T20:57:30.953Z,101401.44
2022-10-28T21:00:12.097Z,101401.16
2022-10-28T21:02:52.649Z,101392.91
2022-10-28T21:05:33.967Z,101394.78
2022-10-28T21:08:19.596Z,101395.78
2022-10-28T21:11:03.362Z,101391.59
2022-10-28T21:13:45.438Z,101385.72
2022-10-28T21:16:28.405Z,101395.63
2022-10-28T21:19:11.057Z,101397.47
2022-10-28T21:21:50.251Z,101404.72
2022-10-28T21:24:31.419Z,101396.84
2022-10-28T21:27:11.665Z,101399.88
2022-10-28T21:30:04.648Z,101396.72
2022-10-28T21:32:46.648Z,101391.16
2022-10-28T21:35:27.587Z,101392.19
2022-10-28T21:38:12.924Z,101395.03
2022-10-28T21:41:00.401Z,101390.69
2022-10-28T21:43:43.996Z,101396.22
2022-10-28T21:46:24.464Z,101392.06
2022-10-28T21:49:05.837Z,101391.53
2022-10-28T21:51:45.238Z,101391.91
2022-10-28T21:54:38.850Z,101392.63
2022-10-28T21:57:20.639Z,101400.38
2022-10-28T22:00:04.095Z,101394.47
2022-10-28T22:02:54.265Z,101394.97
2022-10-28T22:05:35.561Z,101385.13
2022-10-28T22:08:15.463Z,101388.31
2022-10-28T22:11:00.527Z,101398.72
2022-10-28T22:13:41.468Z,101398.44
2022-10-28T22:16:22.837Z,101395.44
2022-10-28T22:19:01.279Z,101407.50
2022-10-28T22:21:43.390Z,101414.56
2022-10-28T22:24:25.927Z,101406.19
2022-10-28T22:27:08.915Z,101424.13
2022-10-28T22:29:47.963Z,101417.59
2022-10-28T22:32:28.052Z,101425.16
2022-10-28T22:35:08.946Z,101432.00
2022-10-28T22:37:49.429Z,101435.22
2022-10-28T22:40:30.676Z,101455.16
2022-10-28T22:43:31.327Z,101463.53
2022-10-28T22:46:13.217Z,101460.19
2022-10-28T22:48:56.203Z,101465.53
2022-10-28T22:51:37.141Z,101462.19
2022-10-28T22:54:15.100Z,101460.47
2022-10-28T22:56:55.144Z,101474.59
2022-10-28T22:59:36.912Z,101472.91
2022-10-28T23:02:18.080Z,101481.63
2022-10-28T23:04:59.326Z,101485.97
2022-10-28T23:07:39.152Z,101479.94
2022-10-28T23:10:17.195Z,101487.28
2022-10-28T23:13:00.503Z,101499.84
2022-10-28T23:15:43.756Z,101498.00
2022-10-28T23:18:28.542Z,101505.06
2022-10-28T23:21:25.956Z,101510.72
2022-10-28T23:24:06.482Z,101532.16
2022-10-28T23:26:47.743Z,101529.31
2022-10-28T23:29:29.818Z,101538.06
2022-10-28T23:32:08.350Z,101551.78
2022-10-28T23:34:48.521Z,101557.50
2022-10-28T23:37:29.895Z,101556.81
2022-10-28T23:40:13.541Z,101557.50
2022-10-28T23:43:37.708Z,101562.00
2022-10-28T23:46:18.014Z,101575.41
2022-10-28T23:49:11.037Z,101580.78
2022-10-28T23:51:50.789Z,101588.81
2022-10-28T23:54:30.655Z,101587.13
2022-10-28T23:57:10.735Z,101594.84
